Time;durP1;ratioP1;P1;durP2;ratioP2;P2;SDS_P1;SDS_P2;PMS_P1;PMS_P2;Temp;Humidity;BMP_temperature;BMP_pressure;BME280_temperature;BME280_humidity;BME280_pressure;Samples;Min_cycle;Max_cycle;Signal;HPM_P1;HPM_P2
2023/12/08 00:00:49;;;;;;;11.65;7.60;;;;;;;2.99;65.34;95016.06;5066728;28;20032;-80
2023/12/08 00:03:15;;;;;;;10.75;7.38;;;;;;;2.95;65.20;95010.63;5067051;28;20029;-80
2023/12/08 00:05:40;;;;;;;12.13;8.30;;;;;;;2.99;65.46;95021.50;5068171;28;20600;-80
2023/12/08 00:08:06;;;;;;;18.30;11.13;;;;;;;2.87;65.47;95009.06;5066441;28;20035;-79
2023/12/08 00:10:31;;;;;;;14.25;8.70;;;;;;;2.98;65.24;95020.69;5066562;28;20028;-79
2023/12/08 00:12:56;;;;;;;11.10;7.70;;;;;;;3.12;65.11;95025.41;5049390;28;20036;-79
2023/12/08 00:15:22;;;;;;;12.40;7.63;;;;;;;3.13;64.98;95016.09;5066491;28;20039;-80
2023/12/08 00:17:48;;;;;;;10.85;6.95;;;;;;;3.13;65.07;95026.94;5067723;28;20441;-80
2023/12/08 00:20:13;;;;;;;10.18;7.30;;;;;;;3.07;64.93;95023.06;5068227;28;20032;-81
2023/12/08 00:22:39;;;;;;;8.98;6.72;;;;;;;3.09;65.05;95026.94;5066058;28;20033;-79
2023/12/08 00:25:05;;;;;;;9.55;6.88;;;;;;;3.03;65.20;95028.47;5066493;28;20402;-81
2023/12/08 00:27:30;;;;;;;10.43;7.00;;;;;;;3.06;65.10;95025.00;5045953;28;20028;-81
2023/12/08 00:29:56;;;;;;;9.23;6.75;;;;;;;3.00;65.36;95031.22;5045965;28;20061;-80
2023/12/08 00:32:21;;;;;;;9.43;7.28;;;;;;;3.03;65.25;95024.97;5046406;28;20403;-81
2023/12/08 00:34:47;;;;;;;8.95;6.18;;;;;;;3.10;65.19;95027.72;5047103;28;20045;-80
2023/12/08 00:37:12;;;;;;;10.75;5.90;;;;;;;3.15;64.72;95022.69;5046732;28;20087;-80
2023/12/08 00:39:39;;;;;;;9.93;6.15;;;;;;;3.10;64.82;95030.44;5046970;28;20033;-80
2023/12/08 00:42:04;;;;;;;8.77;6.45;;;;;;;3.12;64.69;95026.16;5046590;28;20547;-81
2023/12/08 00:44:29;;;;;;;8.63;6.13;;;;;;;3.09;64.76;95023.44;5046168;28;20167;-80
2023/12/08 00:46:55;;;;;;;8.40;6.20;;;;;;;3.10;64.25;95011.44;5050019;28;20028;-81
2023/12/08 00:49:20;;;;;;;8.20;5.85;;;;;;;3.16;63.87;95015.31;5054400;28;20625;-81
2023/12/08 00:51:46;;;;;;;8.30;6.00;;;;;;;3.07;64.19;95007.53;5052374;28;20025;-81
2023/12/08 00:54:13;;;;;;;8.73;5.75;;;;;;;3.05;64.43;95017.25;5050941;28;20057;-82
2023/12/08 00:56:38;;;;;;;8.13;6.13;;;;;;;3.08;64.26;95019.94;5048123;28;20055;-81
2023/12/08 00:59:04;;;;;;;7.75;5.90;;;;;;;3.01;64.50;95014.50;5047062;28;20492;-81
2023/12/08 01:01:29;;;;;;;8.65;5.65;;;;;;;2.98;64.34;95019.94;5047215;28;20451;-80
2023/12/08 01:03:54;;;;;;;8.57;5.50;;;;;;;3.04;64.14;95021.09;5046009;28;20039;-80
2023/12/08 01:06:20;;;;;;;6.53;4.68;;;;;;;3.03;63.53;95014.13;5047632;28;20029;-80
2023/12/08 01:08:45;;;;;;;7.03;5.45;;;;;;;3.05;63.53;95023.44;5046362;28;20541;-80
2023/12/08 01:11:10;;;;;;;7.53;5.35;;;;;;;3.09;63.28;95023.44;5057654;28;20063;-81
2023/12/08 01:13:36;;;;;;;8.43;5.22;;;;;;;3.04;62.83;95019.19;5066281;28;20033;-81
2023/12/08 01:16:01;;;;;;;6.68;4.60;;;;;;;3.06;63.21;95024.22;5067381;28;20031;-80
2023/12/08 01:18:27;;;;;;;8.13;5.05;;;;;;;3.00;62.96;95023.06;5065177;28;20556;-81
2023/12/08 01:20:53;;;;;;;6.93;4.65;;;;;;;3.02;62.84;95026.94;5066781;28;20044;-81
2023/12/08 01:23:19;;;;;;;9.32;6.22;;;;;;;3.01;63.01;95022.66;5065761;28;20459;-80
2023/12/08 01:25:44;;;;;;;8.23;5.68;;;;;;;3.01;62.94;95028.09;5065045;28;20050;-79
2023/12/08 01:28:10;;;;;;;8.20;5.50;;;;;;;2.96;63.07;95027.69;5065003;28;20081;-80
2023/12/08 01:30:35;;;;;;;7.75;4.82;;;;;;;2.97;63.26;95027.31;5064508;28;20459;-80
2023/12/08 01:33:01;;;;;;;11.07;6.07;;;;;;;2.97;63.30;95018.38;5066964;28;20028;-81
2023/12/08 01:35:27;;;;;;;7.38;5.57;;;;;;;2.96;63.43;95023.03;5066180;28;20064;-80
2023/12/08 01:37:52;;;;;;;9.40;6.20;;;;;;;2.91;63.60;95023.41;5067237;28;20104;-79
2023/12/08 01:40:18;;;;;;;8.70;6.15;;;;;;;2.90;63.90;95009.06;5048723;28;20111;-79
2023/12/08 01:42:44;;;;;;;9.68;6.35;;;;;;;2.96;63.51;95027.69;5066739;28;20487;-81
2023/12/08 01:45:10;;;;;;;8.90;7.05;;;;;;;2.91;63.90;95020.69;5066692;28;20481;-80
2023/12/08 01:47:35;;;;;;;9.77;7.28;;;;;;;2.91;63.92;95017.97;5047954;28;20017;-80
2023/12/08 01:50:02;;;;;;;9.75;6.97;;;;;;;2.86;64.09;95011.00;5048696;28;20522;-79
2023/12/08 01:52:28;;;;;;;8.90;5.75;;;;;;;2.89;63.98;95007.50;5047829;28;20029;-79
2023/12/08 01:54:56;;;;;;;9.27;5.90;;;;;;;3.01;63.25;95019.94;5048524;28;20101;-80
2023/12/08 01:57:21;;;;;;;9.57;6.55;;;;;;;2.88;63.29;95005.19;5064799;28;20025;-80
2023/12/08 01:59:48;;;;;;;10.10;6.80;;;;;;;2.89;63.61;95017.59;5047877;28;20035;-80
2023/12/08 02:02:13;;;;;;;9.77;6.53;;;;;;;2.90;63.63;95013.72;5066290;28;20037;-80
2023/12/08 02:04:43;;;;;;;8.65;6.18;;;;;;;2.95;63.38;95023.44;5065519;28;20073;-80
2023/12/08 02:07:09;;;;;;;9.60;6.15;;;;;;;2.90;63.18;95025.34;5065810;28;20526;-80
2023/12/08 02:09:34;;;;;;;11.90;7.03;;;;;;;2.87;63.18;95022.66;5063871;28;20067;-79
2023/12/08 02:11:59;;;;;;;9.35;5.43;;;;;;;2.91;62.97;95023.41;5064789;28;20058;-80
2023/12/08 02:14:26;;;;;;;8.00;6.30;;;;;;;2.93;63.01;95029.25;5063972;28;20387;-80
2023/12/08 02:16:54;;;;;;;10.65;5.82;;;;;;;2.94;62.60;95033.53;5065064;28;20115;-79
2023/12/08 02:19:20;;;;;;;7.97;5.95;;;;;;;2.92;62.51;95028.47;5064265;28;20483;-80
2023/12/08 02:21:46;;;;;;;9.18;5.78;;;;;;;2.85;63.05;95036.59;5065303;28;20027;-79
2023/12/08 02:24:11;;;;;;;8.85;6.07;;;;;;;2.91;63.03;95034.28;5064661;28;20100;-82
2023/12/08 02:26:37;;;;;;;8.77;6.00;;;;;;;2.91;62.90;95035.06;5063724;28;20027;-80
2023/12/08 02:29:05;;;;;;;9.43;6.00;;;;;;;2.93;62.54;95035.47;5064471;28;20402;-80
2023/12/08 02:31:45;;;;;;;9.10;6.00;;;;;;;2.95;62.58;95037.00;5063844;28;20021;-79
2023/12/08 02:34:14;;;;;;;8.30;5.45;;;;;;;2.94;62.50;95038.94;5064503;28;20428;-80
2023/12/08 02:36:40;;;;;;;8.02;5.93;;;;;;;2.85;62.57;95031.16;5064038;28;20036;-81
2023/12/08 02:39:07;;;;;;;8.88;5.80;;;;;;;2.87;63.03;95041.66;5047189;28;20029;-79
2023/12/08 02:41:32;;;;;;;8.25;6.05;;;;;;;2.98;62.64;95041.66;5047473;28;20028;-80
2023/12/08 02:43:57;;;;;;;7.68;5.38;;;;;;;2.95;62.43;95040.50;5063703;28;20039;-79
2023/12/08 02:46:23;;;;;;;11.38;6.07;;;;;;;2.95;62.53;95037.78;5064390;28;20033;-80
2023/12/08 02:48:48;;;;;;;8.35;5.95;;;;;;;2.95;62.59;95047.88;5046826;28;20029;-80
2023/12/08 02:51:13;;;;;;;8.95;6.60;;;;;;;2.89;62.46;95042.03;5048055;28;20120;-79
2023/12/08 02:53:39;;;;;;;8.02;5.43;;;;;;;2.95;62.05;95045.16;5065199;28;20467;-80
2023/12/08 02:56:04;;;;;;;9.48;5.63;;;;;;;2.95;62.13;95042.44;5065743;28;20036;-80
2023/12/08 02:58:30;;;;;;;8.32;5.82;;;;;;;2.90;62.45;95046.31;5065263;28;20039;-80
2023/12/08 03:00:55;;;;;;;7.65;5.72;;;;;;;2.89;62.39;95042.81;5065422;28;20033;-80
2023/12/08 03:03:21;;;;;;;9.60;5.65;;;;;;;2.90;62.46;95038.94;5065850;28;20139;-80
2023/12/08 03:05:46;;;;;;;7.80;6.03;;;;;;;2.86;62.31;95040.84;5064675;28;20059;-80
2023/12/08 03:08:11;;;;;;;9.32;5.60;;;;;;;2.93;62.09;95040.13;5065599;28;20024;-81
2023/12/08 03:10:37;;;;;;;9.35;6.15;;;;;;;2.93;62.41;95046.31;5063330;28;20095;-81
2023/12/08 03:13:02;;;;;;;8.55;5.78;;;;;;;2.93;62.38;95043.63;5064307;28;20481;-80
2023/12/08 03:15:27;;;;;;;8.70;6.35;;;;;;;2.93;62.16;95035.47;5065313;28;20027;-81
2023/12/08 03:17:53;;;;;;;9.13;6.45;;;;;;;2.87;62.42;95044.38;5065963;28;20502;-79
2023/12/08 03:20:18;;;;;;;10.15;6.88;;;;;;;2.87;62.75;95037.00;5068975;28;20071;-79
2023/12/08 03:22:44;;;;;;;11.73;6.05;;;;;;;2.89;62.62;95033.91;5066800;28;20028;-79
2023/12/08 03:25:09;;;;;;;8.68;5.60;;;;;;;2.86;62.28;95027.28;5067856;28;20589;-80
2023/12/08 03:27:34;;;;;;;9.13;5.97;;;;;;;2.87;62.37;95034.28;5068274;28;20021;-79
2023/12/08 03:30:00;;;;;;;8.48;6.28;;;;;;;2.90;62.38;95033.50;5067672;28;20445;-79
2023/12/08 03:32:25;;;;;;;8.38;5.55;;;;;;;2.88;62.48;95035.84;5068588;28;20035;-79
2023/12/08 03:34:51;;;;;;;9.65;6.07;;;;;;;2.88;62.43;95033.13;5068684;28;20383;-80
2023/12/08 03:37:16;;;;;;;9.05;6.50;;;;;;;2.85;62.77;95030.38;5050703;28;20028;-80
2023/12/08 03:39:47;;;;;;;8.10;5.75;;;;;;;2.91;62.37;95042.44;5067988;28;20032;-79
2023/12/08 03:42:13;;;;;;;7.97;5.63;;;;;;;2.89;62.15;95037.38;5068921;28;20510;-79
2023/12/08 03:44:38;;;;;;;8.38;6.50;;;;;;;2.80;62.72;95026.09;5068053;28;20028;-80
2023/12/08 03:47:03;;;;;;;8.57;5.90;;;;;;;2.87;62.58;95026.13;5068803;28;20076;-80
2023/12/08 03:49:29;;;;;;;8.90;6.03;;;;;;;2.90;62.36;95025.34;5068300;28;20033;-80
2023/12/08 03:51:54;;;;;;;7.57;5.28;;;;;;;2.95;61.89;95018.78;5068810;28;20791;-80
2023/12/08 03:54:20;;;;;;;8.15;5.85;;;;;;;2.97;62.05;95021.09;5068475;28;20052;-80
2023/12/08 03:56:46;;;;;;;7.10;5.43;;;;;;;2.97;61.96;95026.53;5066657;28;20025;-80
2023/12/08 03:59:12;;;;;;;7.60;5.57;;;;;;;2.95;61.90;95016.06;5068358;28;20017;-80
2023/12/08 04:01:37;;;;;;;7.45;5.05;;;;;;;2.97;62.07;95023.81;5066496;28;20067;-79
2023/12/08 04:04:02;;;;;;;8.30;5.82;;;;;;;2.96;61.97;95012.19;5067033;28;20028;-79
2023/12/08 04:06:28;;;;;;;8.25;5.47;;;;;;;2.91;62.40;95013.31;5066358;28;20511;-79
2023/12/08 04:08:53;;;;;;;7.10;5.32;;;;;;;2.96;61.88;95011.41;5066750;28;20025;-80
2023/12/08 04:11:19;;;;;;;7.15;5.15;;;;;;;2.90;62.13;95005.56;5066553;28;20476;-79
2023/12/08 04:13:44;;;;;;;8.07;5.72;;;;;;;2.95;62.04;95010.63;5068032;28;20039;-80
2023/12/08 04:16:10;;;;;;;9.02;5.43;;;;;;;2.82;62.52;95001.31;5068049;28;20032;-80
2023/12/08 04:18:35;;;;;;;8.52;5.35;;;;;;;2.76;62.83;94991.97;5067386;28;20428;-80
2023/12/08 04:21:01;;;;;;;7.95;5.45;;;;;;;2.87;62.50;94990.06;5066529;28;20032;-79
2023/12/08 04:23:26;;;;;;;7.90;5.10;;;;;;;2.85;62.63;94998.56;5067507;28;20388;-80
2023/12/08 04:25:51;;;;;;;9.82;6.30;;;;;;;2.81;62.88;94997.00;5066439;28;20081;-81
2023/12/08 04:28:17;;;;;;;8.30;5.88;;;;;;;2.74;62.98;94992.34;5065724;28;20491;-81
2023/12/08 04:30:42;;;;;;;8.43;5.50;;;;;;;2.79;63.19;94989.25;5049520;28;20405;-81
2023/12/08 04:33:09;;;;;;;9.45;6.55;;;;;;;2.74;63.19;94989.63;5069026;28;20051;-81
2023/12/08 04:35:34;;;;;;;7.68;5.40;;;;;;;2.80;63.11;94988.09;5066124;28;20045;-82
2023/12/08 04:38:00;;;;;;;9.02;5.63;;;;;;;2.80;63.14;95001.66;5066417;28;20039;-80
2023/12/08 04:40:25;;;;;;;8.82;6.22;;;;;;;2.76;63.28;95009.06;5065763;28;20033;-80
2023/12/08 04:42:50;;;;;;;9.10;6.40;;;;;;;2.67;63.63;95005.91;5066084;28;20139;-81
2023/12/08 04:45:16;;;;;;;8.27;5.97;;;;;;;2.72;63.54;95007.47;5067151;28;20036;-80
2023/12/08 04:47:41;;;;;;;10.68;6.95;;;;;;;2.69;63.61;95006.28;5067516;28;20127;-81
2023/12/08 04:50:07;;;;;;;9.45;7.05;;;;;;;2.51;64.03;94992.69;5065824;28;20029;-81
2023/12/08 04:52:33;;;;;;;8.13;5.93;;;;;;;2.65;64.10;95014.44;5065884;28;20028;-81
2023/12/08 04:55:00;;;;;;;9.25;6.13;;;;;;;2.70;63.96;95015.25;5065979;28;20028;-80
2023/12/08 04:57:26;;;;;;;9.45;6.60;;;;;;;2.70;63.74;95016.03;5065623;28;20021;-79
2023/12/08 04:59:51;;;;;;;9.18;6.55;;;;;;;2.68;63.88;95015.59;5067064;28;20051;-80
2023/12/08 05:02:17;;;;;;;10.25;7.03;;;;;;;2.73;63.80;95020.66;5065507;28;20025;-80
2023/12/08 05:04:42;;;;;;;10.70;6.97;;;;;;;2.70;63.89;95035.03;5065762;28;20589;-80
2023/12/08 05:07:07;;;;;;;9.68;6.85;;;;;;;2.66;63.92;95032.28;5065289;28;20050;-80
2023/12/08 05:09:33;;;;;;;9.60;7.03;;;;;;;2.64;63.65;95025.69;5067249;28;20503;-80
2023/12/08 05:11:58;;;;;;;8.65;5.93;;;;;;;2.65;63.97;95021.81;5066838;28;20021;-80
2023/12/08 05:14:23;;;;;;;9.85;6.18;;;;;;;2.65;64.01;95029.97;5048806;28;20032;-80
2023/12/08 05:16:49;;;;;;;8.02;5.40;;;;;;;2.63;63.85;95027.59;5066537;28;20029;-81
2023/12/08 05:19:14;;;;;;;8.52;5.88;;;;;;;2.59;64.00;95024.13;5064565;28;20033;-79
2023/12/08 05:21:40;;;;;;;8.02;6.38;;;;;;;2.59;64.19;95018.69;5064963;28;20046;-80
2023/12/08 05:24:05;;;;;;;7.97;5.78;;;;;;;2.68;64.03;95029.19;5066244;28;20064;-80
2023/12/08 05:26:31;;;;;;;9.52;6.90;;;;;;;2.65;64.07;95030.72;5066927;28;20461;-80
2023/12/08 05:28:57;;;;;;;9.90;6.97;;;;;;;2.72;64.07;95031.91;5065753;28;20434;-80
2023/12/08 05:31:22;;;;;;;10.40;6.97;;;;;;;2.66;64.34;95034.22;5065537;28;20414;-80
2023/12/08 05:33:47;;;;;;;8.63;6.25;;;;;;;2.67;64.40;95035.78;5066198;28;20045;-79
2023/12/08 05:36:13;;;;;;;8.25;6.50;;;;;;;2.69;64.12;95028.00;5065179;28;20483;-79
2023/12/08 05:38:38;;;;;;;8.98;6.40;;;;;;;2.74;63.75;95038.50;5065110;28;20484;-79
2023/12/08 05:41:04;;;;;;;7.60;5.90;;;;;;;2.77;63.74;95037.75;5068011;28;20471;-80
2023/12/08 05:43:29;;;;;;;9.40;6.20;;;;;;;2.67;63.71;95039.25;5071542;28;20048;-80
2023/12/08 05:45:55;;;;;;;8.65;6.43;;;;;;;2.59;63.89;95036.91;5074133;28;20036;-81
2023/12/08 05:48:21;;;;;;;8.05;5.43;;;;;;;2.62;63.88;95038.84;5054504;28;20162;-80
2023/12/08 05:50:46;;;;;;;7.47;5.20;;;;;;;2.72;63.53;95048.19;5065852;28;20023;-80
2023/12/08 05:53:13;;;;;;;9.35;5.50;;;;;;;2.67;63.42;95038.50;5065772;28;20021;-79
2023/12/08 05:55:38;;;;;;;7.43;5.68;;;;;;;2.69;63.29;95036.16;5066805;28;20031;-82
2023/12/08 05:58:04;;;;;;;8.80;6.00;;;;;;;2.66;63.41;95047.78;5065733;28;20029;-80
2023/12/08 06:00:29;;;;;;;9.77;6.72;;;;;;;2.71;63.48;95043.94;5066370;28;20032;-82
2023/12/08 06:02:54;;;;;;;9.35;6.28;;;;;;;2.70;63.49;95043.16;5064226;28;20039;-80
2023/12/08 06:05:20;;;;;;;8.80;6.15;;;;;;;2.64;63.39;95053.63;5066399;28;20648;-80
2023/12/08 06:07:45;;;;;;;8.88;6.30;;;;;;;2.72;63.57;95059.06;5065337;28;20028;-79
2023/12/08 06:10:13;;;;;;;8.95;6.20;;;;;;;2.71;63.42;95058.28;5048518;28;20154;-78
2023/12/08 06:12:39;;;;;;;8.23;5.80;;;;;;;2.64;63.44;95055.56;5065908;28;20423;-80
2023/12/08 06:15:06;;;;;;;9.50;6.22;;;;;;;2.59;63.49;95051.28;5064331;28;20119;-79
2023/12/08 06:17:32;;;;;;;9.95;7.00;;;;;;;2.68;63.29;95056.31;5064553;28;20028;-79
2023/12/08 06:19:57;;;;;;;9.90;6.75;;;;;;;2.70;63.42;95064.88;5064810;28;20028;-79
2023/12/08 06:22:22;;;;;;;10.77;7.07;;;;;;;2.70;63.56;95064.88;5066131;28;20432;-78
2023/12/08 06:24:48;;;;;;;10.80;6.95;;;;;;;2.76;63.66;95076.91;5063867;28;20381;-78
2023/12/08 06:27:14;;;;;;;8.27;6.20;;;;;;;2.71;63.38;95071.09;5064659;28;20029;-79
2023/12/08 06:29:40;;;;;;;10.40;7.78;;;;;;;2.73;63.61;95079.63;5063924;28;20031;-79
2023/12/08 06:32:05;;;;;;;12.85;8.98;;;;;;;2.80;63.28;95076.91;5065182;28;20028;-78
2023/12/08 06:34:30;;;;;;;10.50;7.45;;;;;;;2.79;63.40;95072.66;5064380;28;20033;-79
2023/12/08 06:36:56;;;;;;;8.77;7.00;;;;;;;2.74;63.56;95076.50;5065152;28;20572;-79
2023/12/08 06:39:21;;;;;;;10.55;7.00;;;;;;;2.81;63.38;95081.97;5065200;28;20120;-78
2023/12/08 06:41:46;;;;;;;9.93;6.75;;;;;;;2.78;63.56;95077.31;5046988;28;20036;-78
2023/12/08 06:44:12;;;;;;;7.82;6.57;;;;;;;2.72;63.13;95067.22;5066214;28;20115;-79
2023/12/08 06:46:38;;;;;;;10.82;7.00;;;;;;;2.81;63.12;95081.19;5046760;28;20468;-79
2023/12/08 06:49:03;;;;;;;9.82;6.28;;;;;;;2.82;62.95;95075.38;5066062;28;20036;-80
2023/12/08 06:51:28;;;;;;;9.95;6.30;;;;;;;2.85;62.98;95085.47;5065623;28;20028;-80
2023/12/08 06:53:54;;;;;;;10.85;7.03;;;;;;;2.79;63.15;95073.44;5051565;28;20029;-77
2023/12/08 06:56:21;;;;;;;12.15;7.53;;;;;;;2.82;63.31;95086.25;5069689;28;20076;-80
2023/12/08 06:58:47;;;;;;;14.95;8.35;;;;;;;2.80;63.72;95080.41;5068836;28;20463;-78
2023/12/08 07:01:12;;;;;;;12.38;7.00;;;;;;;2.83;63.52;95087.03;5068249;28;20029;-79
2023/12/08 07:03:38;;;;;;;11.38;7.18;;;;;;;2.81;63.41;95087.41;5067125;28;20465;-79
2023/12/08 07:06:03;;;;;;;10.65;7.35;;;;;;;2.80;63.24;95091.25;5069812;28;20071;-79
2023/12/08 07:08:28;;;;;;;10.73;7.47;;;;;;;2.80;63.22;95083.13;5067674;28;20032;-78
2023/12/08 07:10:54;;;;;;;15.00;8.18;;;;;;;2.83;63.32;95087.03;5068066;28;20483;-78
2023/12/08 07:13:20;;;;;;;12.13;7.70;;;;;;;2.87;63.40;95088.59;5069543;28;20040;-79
2023/12/08 07:15:46;;;;;;;10.73;7.13;;;;;;;2.89;63.19;95088.97;5068734;28;20033;-77
2023/12/08 07:18:11;;;;;;;8.35;6.70;;;;;;;2.91;62.87;95094.03;5067922;28;20028;-76
2023/12/08 07:20:36;;;;;;;10.98;7.22;;;;;;;2.85;62.87;95081.97;5068412;28;20549;-77
2023/12/08 07:23:02;;;;;;;12.75;7.53;;;;;;;2.86;63.15;95078.88;5069171;28;20029;-76
2023/12/08 07:25:27;;;;;;;10.60;7.70;;;;;;;2.83;63.22;95085.09;5067003;28;20467;-76
2023/12/08 07:27:52;;;;;;;11.38;7.03;;;;;;;2.88;63.27;95089.38;5068869;28;20035;-77
2023/12/08 07:30:18;;;;;;;9.82;7.40;;;;;;;2.88;63.11;95084.72;5068682;28;20032;-76
2023/12/08 07:32:43;;;;;;;11.52;7.80;;;;;;;2.84;63.38;95083.16;5069756;28;20024;-77
2023/12/08 07:35:09;;;;;;;13.15;8.40;;;;;;;2.88;63.41;95092.88;5068705;28;20542;-77
2023/12/08 07:37:38;;;;;;;11.15;7.43;;;;;;;2.95;62.99;95085.91;5068149;28;20082;-77
2023/12/08 07:40:05;;;;;;;12.77;7.55;;;;;;;2.95;62.93;95097.53;5067491;28;20028;-78
2023/12/08 07:42:30;;;;;;;12.93;7.90;;;;;;;2.90;63.09;95095.97;5066516;28;20024;-77
2023/12/08 07:44:55;;;;;;;12.93;8.18;;;;;;;2.91;63.22;95094.03;5067635;28;20499;-78
2023/12/08 07:47:21;;;;;;;15.25;9.27;;;;;;;2.88;63.36;95090.16;5067076;28;20028;-77
2023/12/08 07:49:46;;;;;;;14.57;8.38;;;;;;;2.98;62.95;95093.25;5066946;28;20387;-77
2023/12/08 07:52:14;;;;;;;10.60;7.97;;;;;;;3.06;62.21;95101.06;5067238;28;20016;-77
2023/12/08 07:54:39;;;;;;;12.40;7.43;;;;;;;3.00;62.09;95094.44;5067934;28;20028;-76
2023/12/08 07:57:04;;;;;;;13.00;7.82;;;;;;;2.97;62.55;95094.44;5050481;28;20029;-77
2023/12/08 07:59:30;;;;;;;11.70;7.78;;;;;;;2.87;62.56;95077.72;5066435;28;20028;-77
2023/12/08 08:01:55;;;;;;;13.40;8.60;;;;;;;2.99;62.43;95097.56;5068369;28;20032;-76
2023/12/08 08:04:21;;;;;;;20.10;9.35;;;;;;;2.97;62.46;95095.19;5067449;28;20025;-77
2023/12/08 08:06:47;;;;;;;13.18;8.98;;;;;;;3.00;62.18;95102.59;5068529;28;20107;-77
2023/12/08 08:09:12;;;;;;;12.23;7.68;;;;;;;2.79;61.88;95072.66;5068147;28;20042;-78
2023/12/08 08:11:37;;;;;;;11.35;7.65;;;;;;;2.90;62.24;95101.38;5067977;28;20655;-77
2023/12/08 08:14:03;;;;;;;10.55;7.25;;;;;;;2.97;62.11;95089.00;5049815;28;20024;-76
2023/12/08 08:16:28;;;;;;;11.40;8.15;;;;;;;2.99;62.59;95090.19;5067561;28;20094;-75
2023/12/08 08:18:54;;;;;;;11.95;7.82;;;;;;;3.00;62.25;95071.94;5067877;28;20027;-77
2023/12/08 08:21:19;;;;;;;13.10;8.38;;;;;;;3.08;62.32;95073.50;5067370;28;20496;-77
2023/12/08 08:23:45;;;;;;;10.98;8.15;;;;;;;3.11;62.18;95072.75;5066591;28;20060;-79
2023/12/08 08:26:10;;;;;;;13.57;8.30;;;;;;;3.11;62.32;95070.03;5067671;28;20108;-77
2023/12/08 08:28:35;;;;;;;10.57;8.38;;;;;;;3.18;62.04;95061.88;5066433;28;20518;-77
2023/12/08 08:31:01;;;;;;;10.35;7.30;;;;;;;3.12;61.78;95063.44;5067679;28;20047;-76
2023/12/08 08:33:26;;;;;;;13.00;7.32;;;;;;;3.19;61.45;95060.72;5067288;28;20064;-77
2023/12/08 08:35:52;;;;;;;13.05;6.80;;;;;;;3.20;61.53;95054.13;5049502;28;20036;-77
2023/12/08 08:38:17;;;;;;;12.13;7.43;;;;;;;3.16;61.43;95037.81;5067159;28;20029;-77
2023/12/08 08:40:43;;;;;;;10.25;6.72;;;;;;;3.29;61.17;95062.69;5049506;28;20021;-77
2023/12/08 08:43:08;;;;;;;11.77;7.95;;;;;;;3.18;61.41;95051.78;5065726;28;20493;-78
2023/12/08 08:45:34;;;;;;;12.27;8.05;;;;;;;3.23;61.27;95053.34;5068041;28;20033;-78
2023/12/08 08:47:59;;;;;;;14.48;7.45;;;;;;;3.22;61.56;95045.59;5066985;28;20429;-78
2023/12/08 08:50:24;;;;;;;13.77;7.72;;;;;;;3.19;61.39;95047.91;5067199;28;20082;-78
2023/12/08 08:52:50;;;;;;;13.20;7.47;;;;;;;3.17;61.59;95039.38;5049166;28;20028;-76
2023/12/08 08:55:15;;;;;;;14.20;7.90;;;;;;;3.21;61.61;95047.50;5065410;28;20478;-77
2023/12/08 08:57:41;;;;;;;12.85;7.05;;;;;;;3.26;61.26;95041.69;5066126;28;20032;-76
2023/12/08 09:00:11;;;;;;;12.90;7.68;;;;;;;3.27;61.43;95037.84;5064949;28;20117;-77
2023/12/08 09:02:37;;;;;;;12.60;7.20;;;;;;;3.26;61.61;95036.25;5066101;28;20036;-76
2023/12/08 09:05:03;;;;;;;11.63;7.57;;;;;;;3.24;61.45;95035.13;5065146;28;20033;-77
2023/12/08 09:07:28;;;;;;;13.57;7.63;;;;;;;3.29;61.16;95027.34;5067105;28;20514;-78
2023/12/08 09:09:53;;;;;;;11.90;7.32;;;;;;;3.32;61.42;95032.00;5066802;28;20028;-78
2023/12/08 09:12:19;;;;;;;11.38;7.20;;;;;;;3.41;60.91;95031.63;5066309;28;20111;-78
2023/12/08 09:14:44;;;;;;;9.63;6.82;;;;;;;3.37;61.22;95037.03;5066753;28;20394;-78
2023/12/08 09:17:09;;;;;;;10.85;7.47;;;;;;;3.43;60.79;95030.06;5065517;28;20021;-77
2023/12/08 09:19:35;;;;;;;9.25;6.53;;;;;;;3.51;60.12;95032.81;5067082;28;20218;-79
2023/12/08 09:22:00;;;;;;;9.10;5.82;;;;;;;3.45;60.09;95024.25;5065811;28;20028;-78
2023/12/08 09:24:26;;;;;;;10.90;6.85;;;;;;;3.48;60.22;95023.47;5065742;28;20032;-78
2023/12/08 09:26:55;;;;;;;13.80;7.00;;;;;;;3.42;59.57;95006.78;5064928;28;20032;-78
2023/12/08 09:29:21;;;;;;;15.50;10.43;;;;;;;3.53;60.00;95022.31;5048560;28;20134;-78
2023/12/08 09:31:46;;;;;;;12.48;8.00;;;;;;;3.53;60.01;95016.88;5064959;28;20060;-78
2023/12/08 09:34:11;;;;;;;10.52;7.03;;;;;;;3.58;59.83;95021.91;5065902;28;20124;-78
2023/12/08 09:36:37;;;;;;;9.02;6.25;;;;;;;3.60;59.77;95016.84;5065016;28;20099;-78
2023/12/08 09:39:04;;;;;;;9.27;6.75;;;;;;;3.59;59.71;95016.09;5064310;28;20050;-79
2023/12/08 09:41:30;;;;;;;10.35;6.43;;;;;;;3.57;59.50;95009.50;5066665;28;20082;-79
2023/12/08 09:44:13;;;;;;;10.93;8.05;;;;;;;3.61;59.70;95007.53;5064342;28;20111;-78
2023/12/08 09:46:45;;;;;;;13.45;8.05;;;;;;;3.63;59.74;95000.56;5065889;28;20021;-77
2023/12/08 09:49:41;;;;;;;11.43;6.72;;;;;;;3.71;59.11;95007.53;5066205;28;20032;-78
2023/12/08 09:52:06;;;;;;;8.68;6.07;;;;;;;3.66;59.34;95002.47;5059791;28;20036;-78
2023/12/08 09:54:32;;;;;;;9.02;6.32;;;;;;;3.69;59.56;94993.56;5065588;28;20100;-78
2023/12/08 09:56:58;;;;;;;11.30;6.80;;;;;;;3.69;59.66;94992.78;5064238;28;20086;-78
2023/12/08 09:59:27;;;;;;;9.13;5.80;;;;;;;3.75;59.00;94999.38;5064606;28;20043;-78
2023/12/08 10:01:52;;;;;;;8.77;6.07;;;;;;;3.73;59.04;94997.06;5047973;28;20047;-77
2023/12/08 10:04:18;;;;;;;7.63;5.50;;;;;;;3.77;58.87;94985.38;5064111;28;20028;-77
2023/12/08 10:06:44;;;;;;;11.50;6.20;;;;;;;3.77;58.93;94979.94;5064754;28;20056;-77
2023/12/08 10:09:11;;;;;;;8.15;5.70;;;;;;;3.78;59.16;94965.16;5063935;28;20032;-78
2023/12/08 10:11:38;;;;;;;9.77;6.60;;;;;;;3.80;59.13;94977.22;5065181;28;20036;-78
2023/12/08 10:14:05;;;;;;;9.13;6.32;;;;;;;3.79;58.98;94970.22;5064007;28;20025;-78
2023/12/08 10:16:30;;;;;;;8.95;6.10;;;;;;;3.79;59.14;94966.75;5064556;28;20109;-77
2023/12/08 10:19:06;;;;;;;10.82;6.60;;;;;;;3.82;59.15;94965.94;5064156;28;20507;-78
2023/12/08 10:21:31;;;;;;;12.15;8.05;;;;;;;3.84;58.92;94971.75;5063690;28;20082;-78
2023/12/08 10:24:03;;;;;;;12.38;7.32;;;;;;;3.82;58.85;94953.13;5064449;28;20033;-78
2023/12/08 10:26:30;;;;;;;10.60;6.70;;;;;;;3.85;58.70;94965.94;5047205;28;20037;-76
2023/12/08 10:28:57;;;;;;;15.25;8.10;;;;;;;3.89;58.65;94958.53;5064429;28;20154;-78
2023/12/08 10:31:23;;;;;;;9.00;6.43;;;;;;;3.95;58.52;94961.63;5064125;28;20031;-79
2023/12/08 10:33:49;;;;;;;11.18;7.35;;;;;;;3.94;58.78;94960.84;5064096;28;20068;-78
2023/12/08 10:36:15;;;;;;;17.30;9.40;;;;;;;3.95;58.75;94958.91;5067567;28;20040;-79
2023/12/08 10:38:41;;;;;;;14.93;9.38;;;;;;;3.91;58.89;94952.72;5068987;28;20025;-79
2023/12/08 10:41:08;;;;;;;15.27;9.18;;;;;;;3.93;58.93;94950.38;5071235;28;20642;-78
2023/12/08 10:43:36;;;;;;;12.85;7.38;;;;;;;3.94;58.88;94958.13;5066831;28;20032;-79
2023/12/08 10:46:03;;;;;;;10.98;7.20;;;;;;;3.99;58.92;94946.84;5065603;28;20047;-78
2023/12/08 10:48:29;;;;;;;9.82;5.82;;;;;;;3.94;58.64;94944.53;5064967;28;20099;-79
2023/12/08 10:50:55;;;;;;;10.98;7.22;;;;;;;3.93;58.62;94951.16;5064547;28;20052;-78
2023/12/08 10:53:21;;;;;;;11.95;6.80;;;;;;;3.91;58.45;94944.56;5065764;28;20093;-78
2023/12/08 10:55:52;;;;;;;12.20;7.18;;;;;;;3.91;58.68;94939.91;5064270;28;20103;-77
2023/12/08 10:58:20;;;;;;;11.95;7.30;;;;;;;3.91;58.48;94939.91;5064387;28;20044;-77
2023/12/08 11:00:46;;;;;;;11.88;8.02;;;;;;;3.89;58.56;94941.44;5063900;28;20040;-78
2023/12/08 11:03:12;;;;;;;12.23;8.00;;;;;;;4.02;58.34;94936.38;5064532;28;20111;-78
2023/12/08 11:05:55;;;;;;;11.13;7.10;;;;;;;4.00;58.36;94939.47;5065108;28;20364;-77
2023/12/08 11:08:20;;;;;;;10.68;6.85;;;;;;;3.93;58.26;94940.25;5065672;28;20024;-78
2023/12/08 11:10:52;;;;;;;14.00;8.10;;;;;;;3.96;58.35;94934.06;5064466;28;20029;-79
2023/12/08 11:13:28;;;;;;;13.25;7.53;;;;;;;3.95;58.49;94939.88;5063776;28;20151;-77
2023/12/08 11:16:15;;;;;;;11.10;7.28;;;;;;;3.96;58.51;94936.00;5065513;28;20013;-79
2023/12/08 11:18:40;;;;;;;10.13;7.47;;;;;;;4.01;58.33;94927.41;5063453;28;20391;-76
2023/12/08 11:21:07;;;;;;;14.60;9.20;;;;;;;3.96;58.71;94931.34;5063953;28;20033;-77
2023/12/08 11:23:34;;;;;;;11.63;8.15;;;;;;;3.95;58.83;94928.97;5063747;28;20025;-78
2023/12/08 11:26:17;;;;;;;11.75;8.57;;;;;;;4.03;58.75;94929.75;5063225;28;20056;-77
2023/12/08 11:29:05;;;;;;;18.55;9.65;;;;;;;3.99;58.63;94924.31;5063691;28;20483;-77
2023/12/08 11:32:08;;;;;;;15.27;9.52;;;;;;;3.93;58.99;94923.94;5064769;28;20107;-78
2023/12/08 11:34:37;;;;;;;12.30;8.73;;;;;;;4.00;59.10;94931.31;5062585;28;20084;-77